createdAt,value
2019-02-28T00:00:06.613Z,101404.91
2019-02-28T00:05:11.171Z,101401.54
2019-02-28T00:10:16.646Z,101405.88
2019-02-28T00:15:22.139Z,101404.98
2019-02-28T00:20:29.153Z,101409.59
2019-02-28T00:25:37.517Z,101402.19
2019-02-28T00:30:42.361Z,101400.39
2019-02-28T00:35:47.763Z,101386.75
2019-02-28T00:40:54.211Z,101387.83
2019-02-28T00:45:59.805Z,101386.45
2019-02-28T00:51:05.453Z,101387.67
2019-02-28T00:56:11.452Z,101372.83
2019-02-28T01:01:16.905Z,101372.31
2019-02-28T01:06:22.493Z,101365.28
2019-02-28T01:11:28.233Z,101358.34
2019-02-28T01:16:33.959Z,101347.47
2019-02-28T01:21:39.719Z,101338.20
2019-02-28T01:26:46.766Z,101338.27
2019-02-28T01:31:52.152Z,101336.02
2019-02-28T01:36:57.781Z,101325.33
2019-02-28T01:42:03.307Z,101324.33
2019-02-28T01:47:09.010Z,101328.87
2019-02-28T01:52:14.512Z,101325.91
2019-02-28T01:57:19.929Z,101326.95
2019-02-28T02:02:25.605Z,101327.23
2019-02-28T02:07:33.344Z,101318.59
2019-02-28T02:12:38.043Z,101309.52
2019-02-28T02:17:43.455Z,101303.91
2019-02-28T02:22:48.926Z,101289.59
2019-02-28T02:27:54.449Z,101286.55
2019-02-28T02:32:59.987Z,101274.52
2019-02-28T02:38:05.474Z,101261.77
2019-02-28T02:43:11.007Z,101256.92
2019-02-28T02:48:16.595Z,101245.00
2019-02-28T02:53:22.097Z,101239.92
2019-02-28T02:58:28.199Z,101237.81
2019-02-28T03:03:33.623Z,101233.35
2019-02-28T03:08:39.365Z,101226.67
2019-02-28T03:13:44.924Z,101236.27
2019-02-28T03:18:56.553Z,101244.06
2019-02-28T03:23:57.574Z,101248.23
2019-02-28T03:29:07.508Z,101246.80
2019-02-28T03:34:13.755Z,101238.45
2019-02-28T03:39:24.229Z,101238.78
2019-02-28T03:44:24.761Z,101236.06
2019-02-28T03:49:30.176Z,101236.91
2019-02-28T03:54:35.684Z,101239.38
2019-02-28T03:59:41.743Z,101234.97
2019-02-28T04:04:50.199Z,101231.34
2019-02-28T04:09:54.323Z,101231.30
2019-02-28T04:14:59.813Z,101224.59
2019-02-28T04:20:05.532Z,101229.18
2019-02-28T04:25:11.111Z,101222.95
2019-02-28T04:30:16.637Z,101226.67
2019-02-28T04:35:25.261Z,101224.98
2019-02-28T04:40:29.523Z,101226.95
2019-02-28T04:45:35.291Z,101227.84
2019-02-28T04:50:40.750Z,101219.08
2019-02-28T04:55:46.105Z,101207.00
2019-02-28T05:00:51.576Z,101201.09
2019-02-28T05:05:57.150Z,101207.47
2019-02-28T05:11:03.185Z,101218.70
2019-02-28T05:16:09.348Z,101220.45
2019-02-28T05:21:16.554Z,101211.62
2019-02-28T05:26:23.416Z,101207.84
2019-02-28T05:31:28.900Z,101209.02
2019-02-28T05:36:37.870Z,101208.18
2019-02-28T05:41:42.010Z,101204.72
2019-02-28T05:46:47.632Z,101204.82
2019-02-28T05:51:53.235Z,101217.04
2019-02-28T05:56:58.646Z,101209.13
2019-02-28T06:02:04.134Z,101204.59
2019-02-28T06:07:09.688Z,101203.69
2019-02-28T06:12:15.304Z,101198.00
2019-02-28T06:17:21.861Z,101191.09
2019-02-28T06:22:27.326Z,101188.02
2019-02-28T06:27:41.197Z,101192.85
2019-02-28T06:32:40.113Z,101195.39
2019-02-28T06:37:45.922Z,101191.58
2019-02-28T06:42:51.437Z,101195.82
2019-02-28T06:47:56.805Z,101206.66
2019-02-28T06:53:02.291Z,101208.41
2019-02-28T06:58:07.697Z,101198.89
2019-02-28T07:03:13.308Z,101199.87
2019-02-28T07:08:20.722Z,101194.75
2019-02-28T07:13:25.795Z,101187.84
2019-02-28T07:18:31.571Z,101184.48
2019-02-28T07:23:37.096Z,101181.78
2019-02-28T07:28:42.680Z,101174.46
2019-02-28T07:33:48.067Z,101170.61
2019-02-28T07:38:53.670Z,101173.87
2019-02-28T07:43:59.317Z,101175.30
2019-02-28T07:49:05.000Z,101167.47
2019-02-28T07:54:12.632Z,101165.03
2019-02-28T07:59:17.752Z,101157.26
2019-02-28T08:04:23.344Z,101143.50
2019-02-28T08:09:36.857Z,101134.19
2019-02-28T08:14:43.670Z,101129.39
2019-02-28T08:19:48.985Z,101122.13
2019-02-28T08:24:54.441Z,101122.72
2019-02-28T08:29:59.920Z,101105.20
2019-02-28T08:35:05.591Z,101098.26
2019-02-28T08:40:15.775Z,101099.92
2019-02-28T08:45:21.928Z,101082.73
2019-02-28T08:50:27.606Z,101090.28
2019-02-28T08:55:33.479Z,101082.08
2019-02-28T09:00:39.158Z,101086.94
2019-02-28T09:05:45.308Z,101089.48
2019-02-28T09:10:51.165Z,101079.52
2019-02-28T09:15:57.318Z,101076.75
2019-02-28T09:21:03.037Z,101063.27
2019-02-28T09:26:08.752Z,101050.27
2019-02-28T09:31:14.540Z,101036.55
2019-02-28T09:36:20.891Z,101024.91
2019-02-28T09:41:27.246Z,101023.28
2019-02-28T09:46:32.983Z,101035.55
2019-02-28T09:51:38.932Z,101027.88
2019-02-28T09:56:45.305Z,101029.75
2019-02-28T10:01:51.018Z,101035.42
2019-02-28T10:06:56.999Z,101029.94
2019-02-28T10:12:04.702Z,101048.55
2019-02-28T10:17:10.128Z,101049.06
2019-02-28T10:22:15.668Z,101053.59
2019-02-28T10:27:23.303Z,101053.06
2019-02-28T10:32:28.646Z,101055.34
2019-02-28T10:37:35.654Z,101062.21
2019-02-28T10:42:41.507Z,101074.69
2019-02-28T10:47:46.996Z,101079.66
2019-02-28T10:52:52.674Z,101085.13
2019-02-28T10:57:58.147Z,101082.50
2019-02-28T11:03:03.754Z,101077.22
2019-02-28T11:08:12.474Z,101081.84
2019-02-28T11:13:18.470Z,101086.44
2019-02-28T11:18:24.107Z,101067.40
2019-02-28T11:23:29.549Z,101064.28
2019-02-28T11:28:35.025Z,101059.25
2019-02-28T11:33:40.509Z,101049.38
2019-02-28T11:38:45.924Z,101049.54
2019-02-28T11:43:51.708Z,101055.01
2019-02-28T11:48:57.445Z,101053.23
2019-02-28T11:54:02.990Z,101048.16
2019-02-28T11:59:08.442Z,101056.05
2019-02-28T12:04:14.044Z,101061.02
2019-02-28T12:09:20.114Z,101050.98
2019-02-28T12:14:26.437Z,101053.71
2019-02-28T12:19:32.742Z,101056.28
2019-02-28T12:24:38.144Z,101043.89
2019-02-28T12:29:45.692Z,101021.13
2019-02-28T12:34:50.921Z,101037.69
2019-02-28T12:39:56.703Z,101033.66
2019-02-28T12:45:02.636Z,101041.89
2019-02-28T12:50:09.219Z,101036.58
2019-02-28T12:55:16.266Z,101053.60
2019-02-28T13:00:25.362Z,101063.14
2019-02-28T13:05:30.886Z,101069.38
2019-02-28T13:10:36.538Z,101086.20
2019-02-28T13:15:45.499Z,101094.89
2019-02-28T13:20:49.134Z,101103.83
2019-02-28T13:25:59.176Z,101104.59
2019-02-28T13:31:02.026Z,101123.02
2019-02-28T13:36:07.419Z,101127.63
2019-02-28T13:41:17.807Z,101137.95
2019-02-28T13:46:20.283Z,101134.72
2019-02-28T13:51:25.751Z,101120.67
2019-02-28T13:56:33.130Z,101120.45
2019-02-28T14:01:39.859Z,101128.55
2019-02-28T14:06:45.542Z,101116.78
2019-02-28T14:11:51.951Z,101126.91
2019-02-28T14:16:58.350Z,101143.81
2019-02-28T14:22:04.267Z,101141.23
2019-02-28T14:27:09.872Z,101137.58
2019-02-28T14:32:15.626Z,101132.11
2019-02-28T14:37:21.166Z,101123.65
2019-02-28T14:42:27.037Z,101126.11
2019-02-28T14:47:32.944Z,101129.62
2019-02-28T14:52:39.402Z,101129.47
2019-02-28T14:57:45.069Z,101111.37
2019-02-28T15:02:50.803Z,101115.94
2019-02-28T15:07:56.505Z,101107.34
2019-02-28T15:13:02.183Z,101111.50
2019-02-28T15:18:11.039Z,101112.26
2019-02-28T15:23:15.529Z,101113.70
2019-02-28T15:28:21.347Z,101107.17
2019-02-28T15:33:27.508Z,101107.92
2019-02-28T15:38:33.461Z,101103.86
2019-02-28T15:43:39.392Z,101098.39
2019-02-28T15:48:45.217Z,101100.00
2019-02-28T15:53:50.717Z,101095.09
2019-02-28T15:58:56.154Z,101090.45
2019-02-28T16:04:01.530Z,101081.73
2019-02-28T16:09:11.114Z,101078.27
2019-02-28T16:14:16.493Z,101075.97
2019-02-28T16:19:22.722Z,101069.22
2019-02-28T16:24:30.878Z,101062.50
2019-02-28T16:29:36.351Z,101064.84
2019-02-28T16:34:42.231Z,101055.30
2019-02-28T16:39:49.836Z,101058.98
2019-02-28T16:44:55.314Z,101061.53
2019-02-28T16:50:00.728Z,101058.53
2019-02-28T16:55:06.737Z,101057.00
2019-02-28T17:00:13.608Z,101061.77
2019-02-28T17:05:19.051Z,101060.39
2019-02-28T17:10:30.250Z,101066.12
2019-02-28T17:16:01.383Z,101063.98
2019-02-28T17:21:03.437Z,101065.59
2019-02-28T17:26:09.044Z,101058.69
2019-02-28T17:31:31.760Z,101054.50
2019-02-28T17:36:37.233Z,101058.31
2019-02-28T17:41:42.745Z,101057.27
2019-02-28T17:46:51.552Z,101056.92
2019-02-28T17:52:18.323Z,101054.55
2019-02-28T17:58:29.801Z,101055.07
2019-02-28T18:04:45.184Z,101053.92
2019-02-28T18:10:25.122Z,101048.73
2019-02-28T18:16:09.433Z,101046.05
2019-02-28T18:21:51.648Z,101044.61
2019-02-28T18:27:55.942Z,101041.05
2019-02-28T18:33:03.154Z,101044.51
2019-02-28T18:38:08.772Z,101040.74
2019-02-28T18:43:14.807Z,101043.47
2019-02-28T18:48:20.754Z,101049.98
2019-02-28T18:53:26.670Z,101042.44
2019-02-28T18:58:32.387Z,101037.50
2019-02-28T19:03:38.194Z,101030.37
2019-02-28T19:08:43.693Z,101022.55
2019-02-28T19:13:49.188Z,101020.61
2019-02-28T19:18:54.693Z,101018.46
2019-02-28T19:24:00.027Z,101010.40
2019-02-28T19:29:05.543Z,101014.06
2019-02-28T19:34:10.949Z,101015.11
2019-02-28T19:39:16.358Z,101005.84
2019-02-28T19:44:23.657Z,101002.58
2019-02-28T19:49:29.263Z,100986.17
2019-02-28T19:54:34.715Z,100978.39
2019-02-28T19:59:40.078Z,100970.36
2019-02-28T20:04:45.773Z,100961.77
2019-02-28T20:09:51.183Z,100962.97
2019-02-28T20:14:56.577Z,100959.23
2019-02-28T20:20:02.144Z,100954.52
2019-02-28T20:25:10.198Z,100949.98
2019-02-28T20:30:17.057Z,100950.42
2019-02-28T20:35:26.474Z,100948.22
2019-02-28T20:40:29.739Z,100956.83
2019-02-28T20:45:35.209Z,100961.02
2019-02-28T20:50:42.160Z,100960.38
2019-02-28T20:55:47.696Z,100953.13
2019-02-28T21:00:53.158Z,100950.20
2019-02-28T21:05:58.527Z,100944.36
2019-02-28T21:11:03.960Z,100941.65
2019-02-28T21:16:09.460Z,100937.59
2019-02-28T21:21:14.842Z,100932.84
2019-02-28T21:26:20.317Z,100927.50
2019-02-28T21:31:25.781Z,100932.52
2019-02-28T21:36:31.528Z,100935.63
2019-02-28T21:41:37.008Z,100925.39
2019-02-28T21:46:42.378Z,100929.05
2019-02-28T21:51:47.999Z,100921.09
2019-02-28T21:56:54.804Z,100909.62
2019-02-28T22:02:00.306Z,100906.31
2019-02-28T22:07:05.743Z,100907.00
2019-02-28T22:12:11.146Z,100908.92
2019-02-28T22:17:17.180Z,100899.03
2019-02-28T22:22:23.228Z,100903.16
2019-02-28T22:27:29.041Z,100891.92
2019-02-28T22:32:41.981Z,100885.42
2019-02-28T22:37:47.780Z,100876.44
2019-02-28T22:42:53.542Z,100868.14
2019-02-28T22:47:59.470Z,100848.78
2019-02-28T22:53:04.893Z,100846.66
2019-02-28T22:58:11.405Z,100845.72
2019-02-28T23:03:17.686Z,100846.09
2019-02-28T23:08:23.369Z,100851.70
2019-02-28T23:13:29.229Z,100849.84
2019-02-28T23:18:34.970Z,100846.19
2019-02-28T23:23:40.959Z,100833.13
2019-02-28T23:28:55.398Z,100824.83
2019-02-28T23:34:05.171Z,100811.81
2019-02-28T23:39:11.181Z,100817.27
2019-02-28T23:44:16.626Z,100813.45
2019-02-28T23:49:23.037Z,100803.32
2019-02-28T23:54:28.783Z,100800.70
2019-02-28T23:59:34.322Z,100794.16
